Time;durP1;ratioP1;P1;durP2;ratioP2;P2;SDS_P1;SDS_P2;PMS_P1;PMS_P2;Temp;Humidity;BMP_temperature;BMP_pressure;BME280_temperature;BME280_humidity;BME280_pressure;Samples;Min_cycle;Max_cycle;Signal;HPM_P1;HPM_P2
2021/12/25 00:00:48;;;;;;;15.68;11.77;;;;;;;7.81;82.12;98370.97;4993414;28;20038;-76
2021/12/25 00:03:15;;;;;;;17.23;11.45;;;;;;;7.79;81.43;98372.84;4992980;28;20049;-76
2021/12/25 00:05:41;;;;;;;14.90;10.52;;;;;;;7.81;81.80;98370.97;4993468;28;20499;-75
2021/12/25 00:08:06;;;;;;;16.00;10.93;;;;;;;7.86;81.83;98368.91;4975427;28;20042;-76
2021/12/25 00:10:32;;;;;;;20.63;13.45;;;;;;;7.89;81.23;98376.59;4994275;28;20439;-76
2021/12/25 00:12:58;;;;;;;24.42;13.98;;;;;;;7.88;81.36;98379.34;4993316;28;20037;-75
2021/12/25 00:15:24;;;;;;;17.92;12.52;;;;;;;7.89;81.37;98387.09;4992845;28;20042;-75
2021/12/25 00:17:49;;;;;;;14.80;10.25;;;;;;;7.93;81.30;98379.91;4992602;28;20030;-76
2021/12/25 00:20:15;;;;;;;16.52;11.68;;;;;;;7.97;81.23;98384.00;4983145;28;20117;-75
2021/12/25 00:22:40;;;;;;;17.50;12.52;;;;;;;7.98;80.94;98385.69;4975397;28;20045;-75
2021/12/25 00:25:06;;;;;;;13.57;10.68;;;;;;;8.00;81.32;98380.34;4974942;28;20038;-74
2021/12/25 00:35:07;;;;;;;19.95;13.57;;;;;;;8.02;80.44;98365.34;4993278;28;20034;-74
2021/12/25 00:37:32;;;;;;;20.15;13.93;;;;;;;7.98;80.18;98358.63;4975513;28;20153;-74
2021/12/25 00:39:58;;;;;;;21.13;14.38;;;;;;;7.96;80.79;98356.09;4992270;28;20506;-74
2021/12/25 00:42:23;;;;;;;17.90;12.93;;;;;;;7.99;81.39;98357.69;4992205;28;20714;-76
2021/12/25 00:44:49;;;;;;;16.20;12.50;;;;;;;7.99;80.63;98353.25;4992080;28;20026;-73
2021/12/25 00:47:14;;;;;;;18.35;13.00;;;;;;;8.00;81.21;98354.09;5001097;28;20426;-74
2021/12/25 00:49:40;;;;;;;15.30;11.88;;;;;;;7.99;80.42;98350.63;4992130;28;20038;-75
2021/12/25 00:52:06;;;;;;;16.60;12.73;;;;;;;8.00;80.93;98354.09;4992773;28;20066;-75
2021/12/25 00:54:31;;;;;;;17.95;12.60;;;;;;;8.01;80.73;98356.63;4974089;28;20109;-74
2021/12/25 00:56:57;;;;;;;15.45;12.43;;;;;;;8.00;81.13;98348.84;4991688;28;20042;-74
2021/12/25 00:59:22;;;;;;;15.80;12.18;;;;;;;8.04;81.15;98353.81;4991870;28;20117;-74
2021/12/25 01:01:47;;;;;;;15.43;12.02;;;;;;;8.07;80.76;98352.78;4974733;28;20030;-74
2021/12/25 01:04:13;;;;;;;14.20;11.45;;;;;;;8.07;80.53;98356.28;4992117;28;20137;-74
2021/12/25 01:06:39;;;;;;;20.35;13.45;;;;;;;8.06;80.54;98356.34;4990429;28;20375;-74
2021/12/25 01:09:05;;;;;;;24.17;16.33;;;;;;;8.01;81.15;98358.44;4982057;28;20042;-73
2021/12/25 01:11:32;;;;;;;24.85;14.77;;;;;;;7.95;81.45;98350.00;5000386;28;20038;-75
2021/12/25 01:14:06;;;;;;;22.15;15.10;;;;;;;7.92;81.34;98351.94;5003338;28;20089;-74
2021/12/25 01:22:15;;;;;;;18.75;13.20;;;;;;;7.85;81.91;98346.25;4997778;28;20034;-75
2021/12/25 01:27:51;;;;;;;26.20;15.38;;;;;;;7.80;81.83;98343.06;4995427;28;20406;-75
2021/12/25 01:38:07;;;;;;;21.77;11.90;;;;;;;7.68;82.58;98341.19;4997340;28;20057;-74
2021/12/25 01:48:30;;;;;;;21.85;14.75;;;;;;;7.54;83.55;98331.53;4995220;28;20582;-75
2021/12/25 01:50:56;;;;;;;19.52;12.43;;;;;;;7.53;83.12;98342.94;4996903;28;20070;-75
2021/12/25 01:53:21;;;;;;;20.10;13.35;;;;;;;7.51;83.23;98342.22;4998259;28;20038;-74
2021/12/25 01:55:47;;;;;;;22.80;14.98;;;;;;;7.48;83.92;98345.00;4996708;28;20039;-74
2021/12/25 01:58:12;;;;;;;24.98;15.98;;;;;;;7.42;83.78;98346.22;4997489;28;20035;-76
2021/12/25 02:00:44;;;;;;;22.58;15.73;;;;;;;7.43;84.30;98342.66;4954585;28;20121;-74
2021/12/25 02:03:13;;;;;;;22.45;14.63;;;;;;;7.42;84.58;98340.13;4972516;28;20447;-77
2021/12/25 02:05:39;;;;;;;21.13;14.95;;;;;;;7.41;84.64;98341.03;4994295;28;20441;-76
2021/12/25 02:08:05;;;;;;;27.65;16.80;;;;;;;7.39;84.86;98345.56;4993544;28;20045;-75
2021/12/25 02:10:31;;;;;;;22.80;15.90;;;;;;;7.39;85.30;98332.44;4994959;28;20061;-75
2021/12/25 02:12:57;;;;;;;20.65;13.32;;;;;;;7.42;85.43;98340.97;4994947;28;20054;-76
2021/12/25 02:15:25;;;;;;;15.90;12.15;;;;;;;7.46;85.39;98336.41;4972441;28;20069;-77
2021/12/25 02:18:03;;;;;;;22.40;14.98;;;;;;;7.47;84.97;98335.44;4990278;28;21058;-76
2021/12/25 02:23:31;;;;;;;22.30;17.17;;;;;;;7.47;85.13;98340.69;4972424;28;20026;-76
2021/12/25 02:25:56;;;;;;;28.83;17.95;;;;;;;7.49;85.09;98341.44;4989583;28;20034;-76
2021/12/25 02:28:24;;;;;;;25.90;18.52;;;;;;;7.50;85.39;98343.13;4990066;28;20100;-77
2021/12/25 02:30:53;;;;;;;25.85;18.80;;;;;;;7.49;85.43;98344.91;4990085;28;20134;-76
2021/12/25 02:33:18;;;;;;;27.55;20.65;;;;;;;7.46;85.27;98342.47;4990329;28;20030;-75
2021/12/25 02:35:45;;;;;;;38.90;23.58;;;;;;;7.45;85.46;98346.03;4989171;28;20037;-75
2021/12/25 02:38:10;;;;;;;36.78;25.67;;;;;;;7.39;85.48;98340.31;4989888;28;20101;-75
2021/12/25 02:40:36;;;;;;;36.55;25.73;;;;;;;7.30;85.96;98336.44;4989777;28;20030;-76
2021/12/25 02:43:01;;;;;;;38.85;25.60;;;;;;;7.26;86.32;98337.56;4990196;28;20110;-76
2021/12/25 02:45:27;;;;;;;35.58;24.52;;;;;;;7.24;86.72;98336.81;4974329;28;20100;-76
2021/12/25 02:47:55;;;;;;;25.75;20.15;;;;;;;7.23;86.39;98335.13;4989739;28;20039;-76
2021/12/25 02:50:29;;;;;;;33.50;23.50;;;;;;;7.22;86.40;98334.28;4989804;28;20120;-76
2021/12/25 02:52:57;;;;;;;26.73;20.95;;;;;;;7.22;87.04;98331.66;4974470;28;20632;-75
2021/12/25 02:55:23;;;;;;;30.05;21.40;;;;;;;7.23;86.78;98329.88;4992110;28;20061;-76
2021/12/25 02:57:52;;;;;;;32.72;22.75;;;;;;;7.23;86.92;98332.50;4993761;28;20035;-76
2021/12/25 03:00:30;;;;;;;30.58;22.58;;;;;;;7.22;86.73;98321.19;4993800;28;20103;-76
2021/12/25 03:02:55;;;;;;;30.95;21.95;;;;;;;7.19;87.16;98323.16;4993229;28;20034;-75
2021/12/25 03:05:21;;;;;;;31.85;22.80;;;;;;;7.17;87.12;98318.00;4990520;28;20038;-74
2021/12/25 03:07:46;;;;;;;26.75;19.75;;;;;;;7.15;86.86;98321.63;4989839;28;20026;-75
2021/12/25 03:10:14;;;;;;;27.08;18.83;;;;;;;7.17;87.33;98320.63;4988987;28;20069;-75
2021/12/25 03:15:30;;;;;;;26.00;19.60;;;;;;;7.15;86.87;98313.78;4988532;28;20033;-75
2021/12/25 03:17:57;;;;;;;24.15;19.25;;;;;;;7.12;87.20;98317.41;4989560;28;20109;-75
2021/12/25 03:20:24;;;;;;;26.25;18.85;;;;;;;7.11;87.22;98315.72;4968757;28;20035;-75
2021/12/25 03:22:50;;;;;;;27.33;19.70;;;;;;;7.14;86.77;98312.94;4988643;28;20030;-75
2021/12/25 03:25:16;;;;;;;21.75;17.15;;;;;;;7.11;87.40;98326.19;4988607;28;20490;-76
2021/12/25 03:27:44;;;;;;;24.23;18.88;;;;;;;7.08;87.04;98315.91;4989849;28;20034;-75
2021/12/25 03:30:14;;;;;;;27.25;18.15;;;;;;;7.05;87.41;98321.34;4995246;28;20117;-75
2021/12/25 03:32:39;;;;;;;24.98;18.98;;;;;;;6.99;87.31;98319.06;4994053;28;20034;-75
2021/12/25 03:35:05;;;;;;;27.73;18.50;;;;;;;6.94;87.81;98319.34;4987722;28;20045;-74
2021/12/25 03:37:30;;;;;;;20.75;16.83;;;;;;;6.88;87.55;98323.13;4977618;28;20039;-78
2021/12/25 03:39:56;;;;;;;20.60;16.02;;;;;;;6.82;87.47;98325.28;4994254;28;20026;-75
2021/12/25 03:42:21;;;;;;;21.15;16.08;;;;;;;6.80;87.99;98320.13;4989620;28;20042;-76
2021/12/25 03:44:47;;;;;;;18.77;14.45;;;;;;;6.78;87.66;98322.00;4989147;28;20713;-75
2021/12/25 03:47:27;;;;;;;18.33;13.90;;;;;;;6.77;87.36;98325.56;4955989;28;20062;-75
2021/12/25 03:58:11;;;;;;;18.55;11.35;;;;;;;6.57;87.43;98318.84;4958651;28;20050;-75
2021/12/25 04:00:37;;;;;;;17.33;11.52;;;;;;;6.42;87.26;98317.91;4996434;28;20034;-75
2021/12/25 04:03:08;;;;;;;18.20;10.35;;;;;;;6.34;88.08;98314.03;4972651;28;20035;-74
2021/12/25 04:05:36;;;;;;;13.32;10.15;;;;;;;6.32;88.38;98316.72;4987943;28;20053;-74
2021/12/25 04:10:28;;;;;;;16.83;10.50;;;;;;;6.18;88.18;98314.88;4988557;28;20406;-74
2021/12/25 04:12:54;;;;;;;13.38;9.70;;;;;;;6.16;88.77;98313.28;4988435;28;20880;-74
2021/12/25 04:15:20;;;;;;;13.52;9.90;;;;;;;6.16;88.32;98316.72;4987859;28;20042;-74
2021/12/25 04:17:45;;;;;;;13.00;9.80;;;;;;;6.14;88.45;98315.97;4988014;28;20096;-75
2021/12/25 04:20:11;;;;;;;11.73;9.40;;;;;;;6.12;88.74;98320.44;4988025;28;20120;-76
2021/12/25 04:22:48;;;;;;;11.38;8.93;;;;;;;6.09;88.27;98319.78;4988411;28;20034;-76
2021/12/25 04:25:19;;;;;;;16.95;11.27;;;;;;;6.04;88.62;98319.19;4987514;28;20495;-74
2021/12/25 04:27:44;;;;;;;12.75;10.48;;;;;;;6.01;88.92;98313.19;4987924;28;20031;-73
2021/12/25 04:30:30;;;;;;;15.07;11.55;;;;;;;5.98;88.95;98315.97;4988068;28;20054;-74
2021/12/25 05:05:13;;;;;;;10.20;7.88;;;;;;;5.76;88.28;98333.72;4991213;28;20054;-75
2021/12/25 05:07:39;;;;;;;7.20;6.20;;;;;;;5.77;88.22;98332.78;4990734;28;20038;-76
2021/12/25 05:10:04;;;;;;;9.93;8.50;;;;;;;5.74;87.96;98335.56;4991812;28;20521;-74
2021/12/25 05:12:30;;;;;;;8.98;7.30;;;;;;;5.74;88.09;98338.19;4990636;28;20441;-74
2021/12/25 05:14:55;;;;;;;9.43;7.95;;;;;;;5.72;87.86;98342.63;4991304;28;20460;-74
2021/12/25 05:17:20;;;;;;;10.95;7.32;;;;;;;5.67;87.48;98342.88;4991484;28;20054;-73
2021/12/25 05:19:46;;;;;;;13.65;9.50;;;;;;;5.63;87.18;98337.88;4990859;28;20171;-73
2021/12/25 05:22:14;;;;;;;9.75;7.75;;;;;;;5.58;87.30;98344.19;4973023;28;20045;-73
2021/12/25 05:24:39;;;;;;;11.00;8.50;;;;;;;5.52;88.16;98343.69;4973107;28;20505;-73
2021/12/25 05:27:05;;;;;;;13.38;11.00;;;;;;;5.47;88.28;98338.69;4974922;28;20054;-73
2021/12/25 05:29:33;;;;;;;14.75;11.65;;;;;;;5.47;88.40;98348.31;4976589;28;20780;-74
2021/12/25 05:31:59;;;;;;;13.68;11.38;;;;;;;5.46;87.71;98349.22;4976366;28;20043;-74
2021/12/25 05:34:24;;;;;;;15.52;12.30;;;;;;;5.41;87.76;98353.84;4976836;28;20043;-74
2021/12/25 05:36:50;;;;;;;16.98;12.82;;;;;;;5.27;87.88;98344.94;4975237;28;20031;-75
2021/12/25 05:39:15;;;;;;;15.73;12.68;;;;;;;5.12;87.23;98349.16;4971550;28;20035;-73
2021/12/25 05:41:40;;;;;;;15.23;12.32;;;;;;;5.01;87.62;98346.25;4971475;28;20530;-73
2021/12/25 05:44:06;;;;;;;17.33;13.00;;;;;;;4.99;87.82;98345.47;4972000;28;20177;-74
2021/12/25 05:46:31;;;;;;;17.35;12.75;;;;;;;4.90;87.93;98352.00;4971053;28;20038;-74
2021/12/25 05:48:57;;;;;;;14.68;11.70;;;;;;;4.88;87.70;98351.22;4971687;28;20069;-73
2021/12/25 05:51:22;;;;;;;15.18;12.38;;;;;;;4.82;87.61;98353.28;4971071;28;20047;-73
2021/12/25 05:53:48;;;;;;;14.25;11.68;;;;;;;4.85;88.14;98358.34;4971394;28;20035;-73
2021/12/25 05:56:14;;;;;;;15.98;12.90;;;;;;;4.82;88.14;98367.19;4970468;28;20039;-74
2021/12/25 05:58:40;;;;;;;17.02;13.70;;;;;;;4.81;87.73;98369.88;4970928;28;20030;-74
2021/12/25 06:01:05;;;;;;;18.45;13.13;;;;;;;4.76;87.23;98371.88;4971788;28;20086;-74
2021/12/25 06:03:31;;;;;;;16.55;12.48;;;;;;;4.71;87.60;98383.38;4981893;28;20038;-74
2021/12/25 06:05:57;;;;;;;16.33;12.43;;;;;;;4.71;87.29;98391.22;4990147;28;20503;-74
2021/12/25 06:08:27;;;;;;;15.18;11.20;;;;;;;4.66;86.93;98387.97;4990231;28;20049;-75
2021/12/25 06:10:53;;;;;;;15.52;11.85;;;;;;;4.60;86.92;98392.63;4990339;28;20038;-74
2021/12/25 06:13:21;;;;;;;14.20;11.02;;;;;;;4.48;86.83;98392.31;4990275;28;20059;-74
2021/12/25 06:15:47;;;;;;;14.07;10.27;;;;;;;4.52;87.46;98400.81;4989537;28;20406;-74
2021/12/25 06:18:13;;;;;;;14.68;11.10;;;;;;;4.47;87.45;98401.03;4990128;28;20048;-74
2021/12/25 06:20:39;;;;;;;13.90;10.15;;;;;;;4.39;87.33;98403.16;4990122;28;20510;-74
2021/12/25 06:23:05;;;;;;;13.00;9.73;;;;;;;4.40;87.54;98401.41;4990472;28;20035;-74
2021/12/25 06:25:31;;;;;;;12.48;9.10;;;;;;;4.38;87.36;98404.09;4989706;28;20029;-74
2021/12/25 06:27:57;;;;;;;11.30;9.40;;;;;;;4.34;87.63;98405.16;4989993;28;20677;-74
2021/12/25 06:30:23;;;;;;;11.07;8.48;;;;;;;4.26;86.92;98400.28;4977466;28;20038;-73
2021/12/25 06:32:48;;;;;;;11.98;8.52;;;;;;;4.17;87.11;98410.28;4992395;28;20387;-74
2021/12/25 06:35:14;;;;;;;11.25;8.95;;;;;;;4.15;87.99;98417.31;4988785;28;20042;-75
2021/12/25 06:37:41;;;;;;;12.68;10.15;;;;;;;4.05;87.52;98412.50;4990274;28;20073;-74
2021/12/25 06:40:09;;;;;;;12.60;8.80;;;;;;;4.03;87.58;98424.78;4990525;28;20054;-75
2021/12/25 06:42:35;;;;;;;13.85;10.48;;;;;;;3.93;86.86;98427.88;4990401;28;20031;-75
2021/12/25 06:45:01;;;;;;;11.85;8.95;;;;;;;3.78;86.98;98430.22;4990030;28;20072;-73
2021/12/25 06:47:26;;;;;;;11.15;8.77;;;;;;;3.69;87.00;98430.63;4972589;28;20422;-74
2021/12/25 06:49:51;;;;;;;12.50;8.98;;;;;;;3.69;87.37;98442.81;4990820;28;20453;-75
2021/12/25 06:52:17;;;;;;;9.15;7.72;;;;;;;3.70;87.93;98447.13;4991752;28;20466;-75
2021/12/25 06:54:42;;;;;;;9.05;6.93;;;;;;;3.71;87.39;98444.44;4992442;28;20046;-75
2021/12/25 06:57:07;;;;;;;9.50;7.25;;;;;;;3.70;87.18;98447.97;4999203;28;20065;-75
2021/12/25 06:59:33;;;;;;;9.85;8.02;;;;;;;3.60;86.88;98447.50;4984133;28;20039;-74
2021/12/25 07:01:58;;;;;;;10.52;7.78;;;;;;;3.53;87.71;98448.69;4994497;28;20104;-74
2021/12/25 07:04:24;;;;;;;12.70;9.23;;;;;;;3.54;86.99;98457.34;4973187;28;20137;-74
2021/12/25 07:06:49;;;;;;;12.70;8.95;;;;;;;3.53;87.65;98461.72;4989123;28;20034;-74
2021/12/25 07:09:14;;;;;;;13.18;9.90;;;;;;;3.52;87.80;98465.22;4989124;28;20044;-73
2021/12/25 07:11:40;;;;;;;11.93;9.32;;;;;;;3.48;87.29;98461.06;4989168;28;20045;-74
2021/12/25 07:14:08;;;;;;;11.10;8.50;;;;;;;3.50;87.15;98466.22;4972418;28;20069;-74
2021/12/25 07:16:34;;;;;;;10.52;8.20;;;;;;;3.50;87.71;98467.06;4971268;28;20406;-74
2021/12/25 07:18:59;;;;;;;10.02;7.40;;;;;;;3.45;87.43;98471.59;4989760;28;20038;-74
2021/12/25 07:21:24;;;;;;;11.70;8.73;;;;;;;3.46;87.52;98470.69;4996636;28;20037;-75
2021/12/25 07:23:50;;;;;;;11.23;9.20;;;;;;;3.47;87.23;98469.78;4996020;28;20406;-73
2021/12/25 07:26:19;;;;;;;13.25;9.60;;;;;;;3.46;87.68;98472.44;4995854;28;20150;-74
2021/12/25 07:28:48;;;;;;;11.77;8.57;;;;;;;3.40;86.56;98473.56;4983578;28;20038;-74
2021/12/25 07:31:14;;;;;;;14.55;9.73;;;;;;;3.40;86.75;98483.97;4978356;28;20117;-74
2021/12/25 07:33:40;;;;;;;11.73;9.38;;;;;;;3.34;87.18;98482.44;4990501;28;20026;-74
2021/12/25 07:36:08;;;;;;;10.68;8.73;;;;;;;3.31;87.30;98484.34;4989047;28;20034;-74
2021/12/25 07:38:34;;;;;;;9.75;8.52;;;;;;;3.31;87.29;98479.97;4988858;28;20121;-74
2021/12/25 07:40:59;;;;;;;11.15;8.88;;;;;;;3.29;87.22;98484.41;4988898;28;20109;-74
2021/12/25 07:43:24;;;;;;;9.25;7.78;;;;;;;3.33;86.87;98482.53;4988855;28;20039;-74
2021/12/25 07:45:52;;;;;;;11.15;8.10;;;;;;;3.34;87.23;98486.81;4988246;28;20026;-73
2021/12/25 07:48:19;;;;;;;11.52;8.63;;;;;;;3.33;87.44;98490.34;4989083;28;20033;-73
2021/12/25 07:50:46;;;;;;;11.68;9.50;;;;;;;3.31;86.88;98484.34;4988085;28;20546;-74
2021/12/25 07:53:11;;;;;;;11.10;9.02;;;;;;;3.29;86.79;98488.75;4989055;28;20045;-73
2021/12/25 07:55:37;;;;;;;12.60;9.82;;;;;;;3.30;87.39;98493.06;4973078;28;20098;-73
2021/12/25 07:58:03;;;;;;;14.10;10.73;;;;;;;3.23;86.89;98498.53;4971646;28;20497;-74
2021/12/25 08:00:29;;;;;;;12.55;9.07;;;;;;;3.18;87.34;98504.84;4988789;28;20604;-74
2021/12/25 08:02:55;;;;;;;12.55;9.60;;;;;;;3.16;87.30;98501.44;4989132;28;20519;-73
2021/12/25 08:05:21;;;;;;;12.27;10.07;;;;;;;3.18;87.36;98502.22;4970656;28;20041;-74
2021/12/25 08:07:47;;;;;;;15.32;11.10;;;;;;;3.12;86.63;98507.66;4971352;28;20077;-74
2021/12/25 08:10:13;;;;;;;12.38;10.27;;;;;;;3.08;86.69;98504.34;4957869;28;20031;-74
2021/12/25 08:12:45;;;;;;;15.30;11.52;;;;;;;3.02;86.61;98509.78;4988174;28;20121;-74
2021/12/25 08:15:12;;;;;;;16.33;11.18;;;;;;;3.06;87.57;98507.94;4988710;28;20038;-74
2021/12/25 08:17:38;;;;;;;18.20;13.88;;;;;;;3.05;87.17;98516.63;4989389;28;20520;-74
2021/12/25 08:20:04;;;;;;;15.38;12.02;;;;;;;3.03;87.12;98515.84;4978569;28;20066;-74
2021/12/25 08:22:30;;;;;;;14.52;11.45;;;;;;;3.07;87.33;98515.66;4999943;28;20121;-74
2021/12/25 08:24:55;;;;;;;19.45;13.90;;;;;;;3.07;86.58;98522.63;5006611;28;20049;-73
2021/12/25 08:27:21;;;;;;;13.77;10.07;;;;;;;3.08;87.32;98522.56;4989913;28;20046;-74
2021/12/25 08:29:46;;;;;;;13.00;10.30;;;;;;;3.10;87.22;98522.50;5007612;28;20064;-73
2021/12/25 08:32:11;;;;;;;15.10;11.52;;;;;;;3.11;87.25;98534.63;5006672;28;20077;-74
2021/12/25 08:34:38;;;;;;;13.00;10.45;;;;;;;3.09;86.88;98526.88;4960338;28;20460;-73
2021/12/25 08:37:05;;;;;;;13.85;11.13;;;;;;;3.04;87.02;98531.41;4994689;28;20096;-74
2021/12/25 08:39:31;;;;;;;26.55;17.58;;;;;;;3.01;87.32;98529.78;4992806;28;20034;-73
2021/12/25 08:42:02;;;;;;;16.73;12.07;;;;;;;2.99;87.20;98525.53;4996246;28;20045;-73
2021/12/25 08:44:41;;;;;;;17.17;13.10;;;;;;;2.99;87.20;98526.38;4997596;28;20041;-74
2021/12/25 08:47:11;;;;;;;24.50;17.13;;;;;;;2.99;87.99;98534.19;4999697;28;20038;-75
2021/12/25 08:49:39;;;;;;;17.95;12.55;;;;;;;3.04;87.60;98531.41;4994161;28;20050;-74
2021/12/25 08:52:13;;;;;;;20.92;15.95;;;;;;;3.02;87.64;98535.81;4993184;28;20049;-73
2021/12/25 08:54:39;;;;;;;27.40;17.90;;;;;;;3.04;87.92;98536.59;4973895;28;20524;-74
2021/12/25 08:57:06;;;;;;;27.20;19.00;;;;;;;3.05;87.49;98542.66;4992426;28;20042;-74
2021/12/25 08:59:33;;;;;;;23.52;15.63;;;;;;;2.98;87.14;98542.91;4974445;28;20038;-74
2021/12/25 09:02:01;;;;;;;18.85;15.43;;;;;;;2.92;86.92;98548.34;4992171;28;20097;-75
2021/12/25 09:04:26;;;;;;;18.40;14.88;;;;;;;2.91;87.60;98549.25;4983633;28;20699;-74
2021/12/25 09:06:51;;;;;;;21.75;15.32;;;;;;;2.89;87.30;98550.22;4995046;28;20038;-74
2021/12/25 09:09:17;;;;;;;21.08;15.20;;;;;;;2.92;87.21;98550.09;4993238;28;20034;-74
2021/12/25 09:11:42;;;;;;;20.55;14.80;;;;;;;2.95;87.51;98557.78;4996646;28;20122;-75
2021/12/25 09:14:08;;;;;;;20.27;14.00;;;;;;;2.98;87.71;98553.31;4994338;28;20121;-74
2021/12/25 09:16:34;;;;;;;24.80;16.50;;;;;;;3.03;87.90;98560.97;4991623;28;20035;-74
2021/12/25 09:19:00;;;;;;;17.60;14.07;;;;;;;3.04;87.21;98556.59;4997573;28;20030;-74
2021/12/25 09:21:26;;;;;;;20.00;15.05;;;;;;;3.10;87.46;98553.75;5007305;28;20038;-74
2021/12/25 09:23:51;;;;;;;21.27;14.95;;;;;;;3.12;87.57;98563.19;4994453;28;20120;-75
2021/12/25 09:26:17;;;;;;;18.35;15.30;;;;;;;3.08;87.13;98566.84;4976133;28;20106;-74
2021/12/25 09:28:46;;;;;;;23.77;18.08;;;;;;;3.05;87.22;98571.28;4974378;28;20396;-74
2021/12/25 09:31:12;;;;;;;23.67;18.00;;;;;;;3.06;87.34;98578.22;4990539;28;20058;-75
2021/12/25 09:33:38;;;;;;;21.80;17.27;;;;;;;3.05;87.29;98573.91;4990456;28;20042;-74
2021/12/25 09:36:05;;;;;;;23.00;17.02;;;;;;;3.04;86.95;98582.63;4991042;28;20039;-75
2021/12/25 09:38:31;;;;;;;23.92;15.57;;;;;;;3.03;87.29;98587.00;4991300;28;20041;-74
2021/12/25 09:40:57;;;;;;;19.40;14.88;;;;;;;3.03;87.11;98587.00;4991021;28;20045;-75
2021/12/25 09:43:23;;;;;;;24.85;16.10;;;;;;;2.97;87.14;98595.03;4973846;28;20045;-75
2021/12/25 09:45:48;;;;;;;24.48;18.33;;;;;;;3.02;86.76;98593.09;4993033;28;20034;-76
2021/12/25 09:48:14;;;;;;;24.33;17.05;;;;;;;3.00;86.53;98592.28;4991309;28;20446;-75
2021/12/25 09:50:39;;;;;;;24.27;19.23;;;;;;;2.88;86.14;98597.97;4991336;28;20058;-76
2021/12/25 09:53:12;;;;;;;25.83;18.98;;;;;;;2.91;86.68;98595.28;4991460;28;20494;-73
2021/12/25 09:55:42;;;;;;;22.23;17.42;;;;;;;2.89;86.73;98599.69;4973955;28;20069;-74
2021/12/25 09:58:08;;;;;;;26.42;19.65;;;;;;;2.86;86.53;98608.44;4991385;28;20647;-75
2021/12/25 10:00:35;;;;;;;26.48;18.98;;;;;;;2.84;86.93;98604.22;4973566;28;20062;-74
2021/12/25 10:03:01;;;;;;;23.73;18.35;;;;;;;2.89;86.40;98610.09;4990839;28;20088;-75
2021/12/25 10:05:31;;;;;;;25.48;19.58;;;;;;;2.89;86.38;98612.69;4988509;28;20038;-75
2021/12/25 10:08:00;;;;;;;26.00;20.63;;;;;;;2.84;86.27;98609.41;4990631;28;20042;-74
2021/12/25 10:10:35;;;;;;;24.38;19.15;;;;;;;2.80;86.56;98606.91;4990332;28;20461;-74
2021/12/25 10:13:01;;;;;;;24.02;17.95;;;;;;;2.89;86.50;98597.91;4990318;28;20053;-73
2021/12/25 10:15:28;;;;;;;29.77;20.33;;;;;;;2.91;86.38;98597.88;4989880;28;20038;-74
2021/12/25 10:17:56;;;;;;;25.35;18.50;;;;;;;2.91;86.97;98593.50;4990461;28;20034;-75
2021/12/25 10:20:27;;;;;;;26.80;21.50;;;;;;;2.93;86.44;98586.50;4990233;28;20041;-73
2021/12/25 10:22:58;;;;;;;26.50;20.38;;;;;;;3.03;87.05;98591.34;4990490;28;20039;-74
2021/12/25 10:25:31;;;;;;;24.40;19.00;;;;;;;3.07;85.89;98595.53;4973201;28;20141;-73
2021/12/25 10:28:00;;;;;;;27.75;18.30;;;;;;;3.16;85.89;98592.59;4989644;28;20513;-74
2021/12/25 10:30:25;;;;;;;27.67;20.98;;;;;;;3.20;86.65;98591.56;4989936;28;20446;-74
2021/12/25 10:32:51;;;;;;;24.27;19.63;;;;;;;3.19;85.73;98597.66;4990124;28;20088;-73
2021/12/25 10:35:20;;;;;;;35.35;23.15;;;;;;;3.28;85.99;98601.69;4989581;28;20126;-74
2021/12/25 10:37:47;;;;;;;30.65;21.67;;;;;;;3.32;85.40;98603.25;4988824;28;20034;-75
2021/12/25 10:40:27;;;;;;;22.33;16.25;;;;;;;3.32;84.90;98587.63;4989472;28;20414;-74
2021/12/25 10:42:58;;;;;;;16.77;12.57;;;;;;;3.25;84.95;98593.97;4972027;28;20048;-75
2021/12/25 10:45:26;;;;;;;17.35;12.55;;;;;;;3.14;84.85;98595.22;4987975;28;20126;-75
2021/12/25 10:48:08;;;;;;;17.20;12.98;;;;;;;3.10;85.56;98583.25;4972541;28;20034;-74
2021/12/25 10:50:37;;;;;;;17.52;11.80;;;;;;;3.10;85.31;98583.25;4990304;28;20113;-74
2021/12/25 10:53:20;;;;;;;17.05;12.68;;;;;;;3.08;85.00;98586.81;4975105;28;20050;-74
2021/12/25 10:55:46;;;;;;;18.25;13.68;;;;;;;3.04;85.52;98587.84;4991415;28;20042;-74
2021/12/25 10:58:21;;;;;;;16.73;12.45;;;;;;;3.06;85.60;98594.69;4993153;28;20038;-74
2021/12/25 11:00:56;;;;;;;14.27;10.82;;;;;;;3.06;85.29;98599.06;4994878;28;20057;-76
2021/12/25 11:03:30;;;;;;;16.30;12.45;;;;;;;3.03;86.07;98597.41;4998180;28;20042;-74
2021/12/25 11:06:01;;;;;;;16.50;12.70;;;;;;;3.05;85.66;98598.19;4989529;28;20030;-75
2021/12/25 11:08:29;;;;;;;21.17;14.70;;;;;;;3.05;85.67;98603.38;4973218;28;20568;-75
2021/12/25 11:10:55;;;;;;;18.90;13.75;;;;;;;3.03;85.28;98602.63;4970334;28;20027;-75
2021/12/25 11:13:34;;;;;;;20.45;15.05;;;;;;;3.03;85.70;98601.75;4989956;28;20042;-75
2021/12/25 11:16:19;;;;;;;16.58;13.88;;;;;;;3.05;85.86;98597.34;4989377;28;20081;-76
2021/12/25 11:18:53;;;;;;;19.98;15.43;;;;;;;3.06;85.97;98597.28;4990274;28;20027;-76
2021/12/25 11:21:18;;;;;;;20.05;15.15;;;;;;;3.06;86.02;98592.09;4996726;28;20027;-75
2021/12/25 11:23:46;;;;;;;19.70;14.85;;;;;;;3.02;85.73;98587.88;4995020;28;20042;-74
2021/12/25 11:26:12;;;;;;;18.92;14.43;;;;;;;3.01;86.24;98594.00;4997090;28;20034;-75
2021/12/25 11:28:38;;;;;;;18.00;13.70;;;;;;;3.04;85.65;98593.88;4998632;28;20035;-75
2021/12/25 11:31:03;;;;;;;19.77;14.77;;;;;;;3.09;86.40;98597.16;4998987;28;20038;-77
2021/12/25 11:33:29;;;;;;;19.60;14.48;;;;;;;3.08;86.05;98598.09;4991113;28;20042;-78
2021/12/25 11:35:54;;;;;;;17.98;13.43;;;;;;;3.01;85.54;98596.63;4989811;28;20543;-77
2021/12/25 11:38:20;;;;;;;19.63;14.05;;;;;;;2.99;86.08;98595.81;4989308;28;20057;-78
2021/12/25 11:40:52;;;;;;;27.67;18.33;;;;;;;2.96;86.24;98599.38;4989196;28;20042;-75
2021/12/25 11:43:33;;;;;;;18.92;13.32;;;;;;;2.97;86.19;98595.88;4989577;28;20038;-76
2021/12/25 11:45:59;;;;;;;21.25;15.45;;;;;;;2.94;86.03;98588.19;4989517;28;20121;-77
2021/12/25 11:48:24;;;;;;;22.00;14.10;;;;;;;2.97;86.57;98587.22;4989050;28;20599;-76
2021/12/25 11:50:52;;;;;;;25.17;16.17;;;;;;;2.89;86.15;98584.06;4988069;28;20034;-77
2021/12/25 11:53:24;;;;;;;21.98;15.05;;;;;;;2.92;87.06;98586.53;4988518;28;20045;-77
2021/12/25 11:58:52;;;;;;;17.95;13.90;;;;;;;2.94;86.39;98582.13;4993354;28;20114;-77
2021/12/25 12:01:20;;;;;;;18.88;14.75;;;;;;;2.93;86.29;98578.69;4992700;28;20045;-76
2021/12/25 12:03:57;;;;;;;18.67;14.63;;;;;;;2.95;86.27;98578.59;4976043;28;20040;-75
2021/12/25 12:06:44;;;;;;;18.75;14.40;;;;;;;2.85;86.00;98572.91;4992252;28;20038;-75
2021/12/25 12:09:30;;;;;;;20.55;13.70;;;;;;;2.88;86.56;98567.59;4992997;28;20038;-76
2021/12/25 12:12:04;;;;;;;25.70;18.13;;;;;;;2.84;86.77;98573.81;4992182;28;20048;-75
2021/12/25 12:14:31;;;;;;;21.90;15.30;;;;;;;2.83;86.37;98563.44;4991451;28;20113;-74
2021/12/25 12:17:06;;;;;;;16.25;14.13;;;;;;;2.89;86.97;98571.88;4975199;28;20097;-75
2021/12/25 12:19:38;;;;;;;16.95;13.82;;;;;;;2.96;86.37;98569.91;4992717;28;20116;-74
2021/12/25 12:22:19;;;;;;;24.00;17.17;;;;;;;2.98;87.02;98571.53;4992427;28;20054;-74
2021/12/25 12:25:13;;;;;;;17.15;13.73;;;;;;;3.05;86.31;98579.09;4992060;28;20096;-75
2021/12/25 12:27:41;;;;;;;19.33;13.68;;;;;;;3.09;86.16;98584.16;4992566;28;20501;-74
2021/12/25 12:30:33;;;;;;;15.77;12.40;;;;;;;3.10;85.71;98593.66;4992075;28;20038;-78
2021/12/25 12:33:14;;;;;;;17.60;12.18;;;;;;;3.10;85.82;98585.84;4992804;28;20120;-79
2021/12/25 12:35:41;;;;;;;16.02;12.40;;;;;;;3.07;85.44;98588.56;4990172;28;20107;-77
2021/12/25 12:38:42;;;;;;;15.95;13.05;;;;;;;3.10;85.92;98582.38;4991403;28;20034;-76
2021/12/25 12:41:26;;;;;;;17.67;13.77;;;;;;;3.13;85.80;98579.69;4996335;28;20053;-77
2021/12/25 12:43:57;;;;;;;15.82;13.82;;;;;;;3.18;85.82;98580.34;4991296;28;20035;-77
2021/12/25 12:46:44;;;;;;;17.38;12.75;;;;;;;3.24;85.11;98580.09;4971399;28;20042;-77
2021/12/25 12:49:09;;;;;;;16.35;12.52;;;;;;;3.23;85.35;98586.22;4990065;28;20034;-75
2021/12/25 12:51:36;;;;;;;16.73;12.93;;;;;;;3.21;85.66;98588.88;4972388;28;20724;-76
2021/12/25 12:54:03;;;;;;;15.27;12.27;;;;;;;3.22;85.53;98595.81;4990063;28;20038;-76